Dobrodošli na spletni strani vremenske postaje Senovo. Vse informacije so informativnega značaja, saj vremenska postaja ni del državne mreže meteoroloških postaj. AKTUALNIH OBVESTIL NI.


Posebna pozornost v zvezi z vremenskimi dogajanji ni potrebna.    Posebna pozornost v zvezi z vremenskimi dogajanji ni potrebna.

Pogled proti Armezu več informacij Pogled proti Armezu


Lisca več informacij Lisca


Radar strel več informacij blitzortung!


Radar padavin več informacij rain snow radar


Obiščite še:

Template documentation
and downloads

And another site



Weather Underground, zgodovina - Tekstovno

Dnevni povzetek za Januar 5, 2018 Enote:  Obe    Angleško   Metrično
« Predhodni Dan
Naslednji Dan »
Dnevni Tedenski Mesečni Letni Po meri
  Višja: Nižja: Povprečje:
Temperatura: TemperatureC °F /  -17.8 °C 1.6 °F /  -16.9 °C 7 °F /  -13.9 °C
Točka rosišča: DewpointC °F /  -17.8 °C 1.2 °F /  -17.1 °C 5.9 °F /  -14.5 °C
Vlažnost: Humidity % 80 % 93 %
Hitrost vetra: WindSpeedKMH mph /  0 km/h - 1.3 mph /  2.1 km/h
Sunki vetra: WindSpeedGustKMH mph /  0 km/h - -
Veter:- - WSW
Zračni tlak: PressurehPa in /  0 hPa 1001.9 in /  33924.3 hPa -
Padavine: 0.0 in /  0 mm    
Historical Graphs
 
 
Tabelarni podarki za Januar 5, 2018
Čas Temperatura Točka rosišča Zračni tlak Veter Hitrost vetra Sunki vetra Vlažnost Intenziteta padavin (urna)
TemperatureC °F /  -17.8 °C DewpointC °F /  -17.8 °C PressurehPa in /  0 hPa Calm     Humidity % HourlyPrecipMM in /  0 mm
00:02 1.6 °F /  -16.9 °C 1.2 °F /  -17.1 °C 1002.9 in /  33958.2 hPa Calm     97 % 0.0 in /  0 mm
00:04 1.7 °F /  -16.8 °C 1.3 °F /  -17.1 °C 1002.9 in /  33958.2 hPa Calm     97 % 0.0 in /  0 mm
00:07 1.7 °F /  -16.8 °C 1.3 °F /  -17.1 °C 1002.9 in /  33958.2 hPa Calm     97 % 0.0 in /  0 mm
00:10 1.7 °F /  -16.8 °C 1.3 °F /  -17.1 °C 1002.9 in /  33958.2 hPa NNW 0.2 mph /  0.3 km/h 3.5 mph /  5.6 km/h 97 % 0.0 in /  0 mm
00:15 1.7 °F /  -16.8 °C 1.3 °F /  -17.1 °C 1002.9 in /  33958.2 hPa ENE 1.0 mph /  1.6 km/h 4.0 mph /  6.4 km/h 97 % 0.0 in /  0 mm
00:20 1.8 °F /  -16.8 °C 1.4 °F /  -17 °C 1002.9 in /  33958.2 hPa SE 0.6 mph /  1 km/h 4.0 mph /  6.4 km/h 97 % 0.0 in /  0 mm
00:22 1.8 °F /  -16.8 °C 1.4 °F /  -17 °C 1002.9 in /  33958.2 hPa SE 0.5 mph /  0.8 km/h 4.0 mph /  6.4 km/h 97 % 0.0 in /  0 mm
00:27 1.9 °F /  -16.7 °C 1.5 °F /  -16.9 °C 1002.9 in /  33958.2 hPa Calm     97 % 0.0 in /  0 mm
00:28 1.9 °F /  -16.7 °C 1.5 °F /  -16.9 °C 1002.9 in /  33958.2 hPa Calm     97 % 0.0 in /  0 mm
00:33 1.9 °F /  -16.7 °C 1.5 °F /  -16.9 °C 1002.9 in /  33958.2 hPa Calm     97 % 0.0 in /  0 mm
00:37 2.0 °F /  -16.7 °C 1.6 °F /  -16.9 °C 1002.9 in /  33958.2 hPa Calm     97 % 0.0 in /  0 mm
00:42 2.0 °F /  -16.7 °C 1.6 °F /  -16.9 °C 1002.9 in /  33958.2 hPa Calm     97 % 0.0 in /  0 mm
00:47 2.1 °F /  -16.6 °C 1.7 °F /  -16.8 °C 1002.9 in /  33958.2 hPa Calm     97 % 0.0 in /  0 mm
00:52 2.1 °F /  -16.6 °C 1.7 °F /  -16.8 °C 1002.9 in /  33958.2 hPa Calm     97 % 0.0 in /  0 mm
00:57 2.1 °F /  -16.6 °C 1.7 °F /  -16.8 °C 1002.9 in /  33958.2 hPa Calm     97 % 0.0 in /  0 mm
01:01 2.2 °F /  -16.6 °C 1.8 °F /  -16.8 °C 1002.9 in /  33958.2 hPa Calm     97 % 0.0 in /  0 mm
01:06 2.2 °F /  -16.6 °C 1.8 °F /  -16.8 °C 1002.9 in /  33958.2 hPa Calm     97 % 0.0 in /  0 mm
01:11 2.3 °F /  -16.5 °C 1.9 °F /  -16.7 °C 1002.9 in /  33958.2 hPa Calm   1.4 mph /  2.3 km/h 97 % 0.0 in /  0 mm
01:16 2.4 °F /  -16.4 °C 2.0 °F /  -16.7 °C 1001.9 in /  33924.3 hPa Calm   1.4 mph /  2.3 km/h 97 % 0.0 in /  0 mm
01:18 2.4 °F /  -16.4 °C 2.0 °F /  -16.7 °C 1001.9 in /  33924.3 hPa Calm     97 % 0.0 in /  0 mm
01:23 2.4 °F /  -16.4 °C 2.0 °F /  -16.7 °C 1001.9 in /  33924.3 hPa Calm     97 % 0.0 in /  0 mm
01:28 2.4 °F /  -16.4 °C 2.1 °F /  -16.6 °C 1001.9 in /  33924.3 hPa Calm     98 % 0.0 in /  0 mm
01:30 2.5 °F /  -16.4 °C 2.2 °F /  -16.6 °C 1001.9 in /  33924.3 hPa Calm     98 % 0.0 in /  0 mm
01:35 2.6 °F /  -16.3 °C 2.3 °F /  -16.5 °C 1001.9 in /  33924.3 hPa Calm     98 % 0.0 in /  0 mm
01:40 2.6 °F /  -16.3 °C 2.3 °F /  -16.5 °C 1001.9 in /  33924.3 hPa Calm     98 % 0.0 in /  0 mm
01:45 2.7 °F /  -16.3 °C 2.4 °F /  -16.4 °C 1002.9 in /  33958.2 hPa Calm     98 % 0.0 in /  0 mm
01:50 2.7 °F /  -16.3 °C 2.4 °F /  -16.4 °C 1002.9 in /  33958.2 hPa Calm     98 % 0.0 in /  0 mm
01:55 2.8 °F /  -16.2 °C 2.5 °F /  -16.4 °C 1002.9 in /  33958.2 hPa Calm     98 % 0.0 in /  0 mm
02:00 2.8 °F /  -16.2 °C 2.5 °F /  -16.4 °C 1001.9 in /  33924.3 hPa Calm     98 % 0.0 in /  0 mm
02:02 2.9 °F /  -16.2 °C 2.6 °F /  -16.3 °C 1001.9 in /  33924.3 hPa Calm     98 % 0.0 in /  0 mm
02:07 2.9 °F /  -16.2 °C 2.6 °F /  -16.3 °C 1001.9 in /  33924.3 hPa Calm     98 % 0.0 in /  0 mm
02:12 3.0 °F /  -16.1 °C 2.6 °F /  -16.3 °C 1002.9 in /  33958.2 hPa Calm     97 % 0.0 in /  0 mm
02:14 3.0 °F /  -16.1 °C 2.6 °F /  -16.3 °C 1002.9 in /  33958.2 hPa Calm     97 % 0.0 in /  0 mm
02:19 3.0 °F /  -16.1 °C 2.6 °F /  -16.3 °C 1002.9 in /  33958.2 hPa Calm     97 % 0.0 in /  0 mm
02:24 3.0 °F /  -16.1 °C 2.6 °F /  -16.3 °C 1002.9 in /  33958.2 hPa Calm     97 % 0.0 in /  0 mm
02:29 3.1 °F /  -16.1 °C 2.7 °F /  -16.3 °C 1002.9 in /  33958.2 hPa Calm     97 % 0.0 in /  0 mm
02:31 3.1 °F /  -16.1 °C 2.7 °F /  -16.3 °C 1002.9 in /  33958.2 hPa Calm     97 % 0.0 in /  0 mm
02:36 3.1 °F /  -16.1 °C 2.8 °F /  -16.2 °C 1002.9 in /  33958.2 hPa Calm     98 % 0.0 in /  0 mm
02:37 3.1 °F /  -16.1 °C 2.8 °F /  -16.2 °C 1002.9 in /  33958.2 hPa Calm     98 % 0.0 in /  0 mm
02:42 3.1 °F /  -16.1 °C 2.8 °F /  -16.2 °C 1002.9 in /  33958.2 hPa Calm     98 % 0.0 in /  0 mm
02:43 3.1 °F /  -16.1 °C 2.8 °F /  -16.2 °C 1002.9 in /  33958.2 hPa Calm     98 % 0.0 in /  0 mm
02:48 3.2 °F /  -16 °C 2.9 °F /  -16.2 °C 1002.9 in /  33958.2 hPa Calm     98 % 0.0 in /  0 mm
02:49 3.2 °F /  -16 °C 2.9 °F /  -16.2 °C 1002.9 in /  33958.2 hPa Calm     98 % 0.0 in /  0 mm
02:54 3.2 °F /  -16 °C 2.9 °F /  -16.2 °C 1002.9 in /  33958.2 hPa SSE 0.8 mph /  1.3 km/h 7.9 mph /  12.7 km/h 98 % 0.0 in /  0 mm
02:59 3.3 °F /  -15.9 °C 3.0 °F /  -16.1 °C 1002.9 in /  33958.2 hPa South 1.3 mph /  2.1 km/h 7.9 mph /  12.7 km/h 98 % 0.0 in /  0 mm
03:04 3.4 °F /  -15.9 °C 3.1 °F /  -16.1 °C 1002.9 in /  33958.2 hPa WNW 0.6 mph /  1 km/h 3.5 mph /  5.6 km/h 98 % 0.0 in /  0 mm
03:07 3.4 °F /  -15.9 °C 3.1 °F /  -16.1 °C 1002.9 in /  33958.2 hPa West 0.5 mph /  0.8 km/h 3.5 mph /  5.6 km/h 98 % 0.0 in /  0 mm
03:12 3.6 °F /  -15.8 °C 3.3 °F /  -15.9 °C 1002.9 in /  33958.2 hPa SSE 1.8 mph /  2.9 km/h 6.4 mph /  10.3 km/h 98 % 0.0 in /  0 mm
03:17 3.7 °F /  -15.7 °C 3.4 °F /  -15.9 °C 1001.9 in /  33924.3 hPa SSE 4.3 mph /  6.9 km/h 9.3 mph /  15 km/h 98 % 0.0 in /  0 mm
03:22 4.1 °F /  -15.5 °C 3.8 °F /  -15.7 °C 1001.9 in /  33924.3 hPa SSE 5.6 mph /  9 km/h 9.3 mph /  15 km/h 98 % 0.0 in /  0 mm
03:28 4.4 °F /  -15.3 °C 4.1 °F /  -15.5 °C 1002.9 in /  33958.2 hPa South 5.3 mph /  8.5 km/h 9.3 mph /  15 km/h 98 % 0.0 in /  0 mm
03:30 4.4 °F /  -15.3 °C 4.1 °F /  -15.5 °C 1002.9 in /  33958.2 hPa South 4.0 mph /  6.4 km/h 9.3 mph /  15 km/h 98 % 0.0 in /  0 mm
03:35 4.4 °F /  -15.3 °C 4.1 °F /  -15.5 °C 1002.9 in /  33958.2 hPa SSW 2.4 mph /  3.9 km/h 6.1 mph /  9.8 km/h 98 % 0.0 in /  0 mm
03:36 4.4 °F /  -15.3 °C 4.1 °F /  -15.5 °C 1002.9 in /  33958.2 hPa SSW 2.1 mph /  3.4 km/h 6.1 mph /  9.8 km/h 98 % 0.0 in /  0 mm
03:37 4.4 °F /  -15.3 °C 4.1 °F /  -15.5 °C 1002.9 in /  33958.2 hPa SSW 2.1 mph /  3.4 km/h 6.1 mph /  9.8 km/h 98 % 0.0 in /  0 mm
03:42 4.4 °F /  -15.3 °C 4.1 °F /  -15.5 °C 1003.9 in /  33992.1 hPa SW 2.3 mph /  3.7 km/h 5.0 mph /  8 km/h 98 % 0.0 in /  0 mm
03:47 4.4 °F /  -15.3 °C 4.1 °F /  -15.5 °C 1003.9 in /  33992.1 hPa WSW 1.0 mph /  1.6 km/h 5.0 mph /  8 km/h 98 % 0.0 in /  0 mm
03:52 4.5 °F /  -15.3 °C 4.2 °F /  -15.4 °C 1003.9 in /  33992.1 hPa Calm     98 % 0.0 in /  0 mm
03:57 4.6 °F /  -15.2 °C 4.3 °F /  -15.4 °C 1003.9 in /  33992.1 hPa Calm     98 % 0.0 in /  0 mm
03:59 4.6 °F /  -15.2 °C 4.3 °F /  -15.4 °C 1002.9 in /  33958.2 hPa Calm   4.0 mph /  6.4 km/h 98 % 0.0 in /  0 mm
04:04 4.5 °F /  -15.3 °C 4.2 °F /  -15.4 °C 1002.9 in /  33958.2 hPa SW 0.6 mph /  1 km/h 4.0 mph /  6.4 km/h 98 % 0.0 in /  0 mm
04:07 4.5 °F /  -15.3 °C 4.2 °F /  -15.4 °C 1002.9 in /  33958.2 hPa SW 0.6 mph /  1 km/h 4.0 mph /  6.4 km/h 98 % 0.0 in /  0 mm
04:12 4.6 °F /  -15.2 °C 4.3 °F /  -15.4 °C 1002.9 in /  33958.2 hPa WSW 0.5 mph /  0.8 km/h 5.5 mph /  8.9 km/h 98 % 0.0 in /  0 mm
04:16 4.6 °F /  -15.2 °C 4.3 °F /  -15.4 °C 1002.9 in /  33958.2 hPa WSW 0.5 mph /  0.8 km/h 5.5 mph /  8.9 km/h 98 % 0.0 in /  0 mm
04:21 4.6 °F /  -15.2 °C 4.3 °F /  -15.4 °C 1002.9 in /  33958.2 hPa SW 0.3 mph /  0.5 km/h 1.8 mph /  2.9 km/h 98 % 0.0 in /  0 mm
04:27 4.7 °F /  -15.2 °C 4.4 °F /  -15.3 °C 1002.9 in /  33958.2 hPa NW 0.8 mph /  1.3 km/h 5.5 mph /  8.9 km/h 98 % 0.0 in /  0 mm
04:29 4.7 °F /  -15.2 °C 4.4 °F /  -15.3 °C 1002.9 in /  33958.2 hPa NW 1.1 mph /  1.8 km/h 5.5 mph /  8.9 km/h 98 % 0.0 in /  0 mm
04:34 4.9 °F /  -15.1 °C 4.6 °F /  -15.2 °C 1002.9 in /  33958.2 hPa NW 1.0 mph /  1.6 km/h 4.0 mph /  6.4 km/h 98 % 0.0 in /  0 mm
04:36 4.9 °F /  -15.1 °C 4.6 °F /  -15.2 °C 1002.9 in /  33958.2 hPa NW 0.3 mph /  0.5 km/h 2.1 mph /  3.4 km/h 98 % 0.0 in /  0 mm
04:41 5.0 °F /  -15 °C 4.7 °F /  -15.2 °C 1002.9 in /  33958.2 hPa Calm   2.6 mph /  4.2 km/h 98 % 0.0 in /  0 mm
04:46 5.1 °F /  -14.9 °C 4.8 °F /  -15.1 °C 1002.9 in /  33958.2 hPa NW 1.3 mph /  2.1 km/h 5.5 mph /  8.9 km/h 98 % 0.0 in /  0 mm
04:50 5.1 °F /  -14.9 °C 4.8 °F /  -15.1 °C 1002.9 in /  33958.2 hPa NW 1.4 mph /  2.3 km/h 5.5 mph /  8.9 km/h 98 % 0.0 in /  0 mm
04:55 5.1 °F /  -14.9 °C 4.8 °F /  -15.1 °C 1002.9 in /  33958.2 hPa WNW 0.6 mph /  1 km/h 3.2 mph /  5.1 km/h 98 % 0.0 in /  0 mm
05:00 5.1 °F /  -14.9 °C 4.8 °F /  -15.1 °C 1003.9 in /  33992.1 hPa NW 0.6 mph /  1 km/h 4.7 mph /  7.6 km/h 98 % 0.0 in /  0 mm
05:05 5.1 °F /  -14.9 °C 4.8 °F /  -15.1 °C 1003.9 in /  33992.1 hPa NW 1.6 mph /  2.6 km/h 4.7 mph /  7.6 km/h 98 % 0.0 in /  0 mm
05:08 5.1 °F /  -14.9 °C 4.8 °F /  -15.1 °C 1003.9 in /  33992.1 hPa NW 1.4 mph /  2.3 km/h 4.7 mph /  7.6 km/h 98 % 0.0 in /  0 mm
05:13 5.1 °F /  -14.9 °C 4.8 °F /  -15.1 °C 1003.9 in /  33992.1 hPa Calm     98 % 0.0 in /  0 mm
05:14 5.1 °F /  -14.9 °C 4.8 °F /  -15.1 °C 1003.9 in /  33992.1 hPa Calm     98 % 0.0 in /  0 mm
05:19 5.1 °F /  -14.9 °C 4.8 °F /  -15.1 °C 1003.9 in /  33992.1 hPa Calm   2.6 mph /  4.2 km/h 98 % 0.0 in /  0 mm
05:23 5.1 °F /  -14.9 °C 4.8 °F /  -15.1 °C 1003.9 in /  33992.1 hPa WNW 1.4 mph /  2.3 km/h 5.0 mph /  8 km/h 98 % 0.0 in /  0 mm
05:28 5.1 °F /  -14.9 °C 4.8 °F /  -15.1 °C 1003.9 in /  33992.1 hPa WNW 1.9 mph /  3.1 km/h 5.0 mph /  8 km/h 98 % 0.0 in /  0 mm
05:29 5.1 °F /  -14.9 °C 4.8 °F /  -15.1 °C 1003.9 in /  33992.1 hPa WNW 1.9 mph /  3.1 km/h 5.0 mph /  8 km/h 98 % 0.0 in /  0 mm
05:34 5.0 °F /  -15 °C 4.7 °F /  -15.2 °C 1003.9 in /  33992.1 hPa SW 1.6 mph /  2.6 km/h 4.7 mph /  7.6 km/h 98 % 0.0 in /  0 mm
05:37 5.0 °F /  -15 °C 4.7 °F /  -15.2 °C 1003.9 in /  33992.1 hPa SW 1.4 mph /  2.3 km/h 5.5 mph /  8.9 km/h 98 % 0.0 in /  0 mm
05:42 5.0 °F /  -15 °C 4.7 °F /  -15.2 °C 1003.9 in /  33992.1 hPa SW 2.9 mph /  4.7 km/h 5.8 mph /  9.3 km/h 98 % 0.0 in /  0 mm
05:43 5.0 °F /  -15 °C 4.7 °F /  -15.2 °C 1003.9 in /  33992.1 hPa SW 3.1 mph /  5 km/h 5.8 mph /  9.3 km/h 98 % 0.0 in /  0 mm
05:47 4.9 °F /  -15.1 °C 4.6 °F /  -15.2 °C 1003.9 in /  33992.1 hPa SSW 4.3 mph /  6.9 km/h 5.8 mph /  9.3 km/h 98 % 0.0 in /  0 mm
05:50 4.9 °F /  -15.1 °C 4.6 °F /  -15.2 °C 1003.9 in /  33992.1 hPa SSW 3.9 mph /  6.3 km/h 5.8 mph /  9.3 km/h 98 % 0.0 in /  0 mm
05:55 4.9 °F /  -15.1 °C 4.6 °F /  -15.2 °C 1003.9 in /  33992.1 hPa SW 2.3 mph /  3.7 km/h 5.8 mph /  9.3 km/h 98 % 0.0 in /  0 mm
05:59 4.8 °F /  -15.1 °C 4.5 °F /  -15.3 °C 1003.9 in /  33992.1 hPa SW 1.0 mph /  1.6 km/h 4.3 mph /  6.9 km/h 98 % 0.0 in /  0 mm
06:02 4.8 °F /  -15.1 °C 4.5 °F /  -15.3 °C 1003.9 in /  33992.1 hPa Calm     98 % 0.0 in /  0 mm
06:07 4.8 °F /  -15.1 °C 4.5 °F /  -15.3 °C 1003.9 in /  33992.1 hPa Calm     98 % 0.0 in /  0 mm
06:08 4.8 °F /  -15.1 °C 4.5 °F /  -15.3 °C 1003.9 in /  33992.1 hPa Calm     98 % 0.0 in /  0 mm
06:13 4.7 °F /  -15.2 °C 4.4 °F /  -15.3 °C 1003.9 in /  33992.1 hPa Calm     98 % 0.0 in /  0 mm
06:14 4.7 °F /  -15.2 °C 4.4 °F /  -15.3 °C 1003.9 in /  33992.1 hPa Calm     98 % 0.0 in /  0 mm
06:18 4.6 °F /  -15.2 °C 4.3 °F /  -15.4 °C 1003.9 in /  33992.1 hPa Calm     98 % 0.0 in /  0 mm
06:23 4.4 °F /  -15.3 °C 4.1 °F /  -15.5 °C 1003.9 in /  33992.1 hPa Calm     98 % 0.0 in /  0 mm
06:28 4.3 °F /  -15.4 °C 4.0 °F /  -15.6 °C 1003.9 in /  33992.1 hPa Calm     98 % 0.0 in /  0 mm
06:33 4.2 °F /  -15.4 °C 3.9 °F /  -15.6 °C 1003.9 in /  33992.1 hPa Calm     98 % 0.0 in /  0 mm
06:38 4.1 °F /  -15.5 °C 3.8 °F /  -15.7 °C 1003.9 in /  33992.1 hPa Calm     98 % 0.0 in /  0 mm
06:40 4.1 °F /  -15.5 °C 3.8 °F /  -15.7 °C 1003.9 in /  33992.1 hPa Calm     98 % 0.0 in /  0 mm
06:42 3.9 °F /  -15.6 °C 3.6 °F /  -15.8 °C 1003.9 in /  33992.1 hPa Calm     98 % 0.0 in /  0 mm
06:47 3.8 °F /  -15.7 °C 3.5 °F /  -15.8 °C 1005.0 in /  34029.3 hPa Calm     98 % 0.0 in /  0 mm
06:51 3.6 °F /  -15.8 °C 3.3 °F /  -15.9 °C 1005.0 in /  34029.3 hPa WNW 0.2 mph /  0.3 km/h 2.6 mph /  4.2 km/h 98 % 0.0 in /  0 mm
06:56 3.6 °F /  -15.8 °C 3.3 °F /  -15.9 °C 1005.0 in /  34029.3 hPa WNW 0.2 mph /  0.3 km/h 2.6 mph /  4.2 km/h 98 % 0.0 in /  0 mm
06:57 3.5 °F /  -15.8 °C 3.2 °F /  -16 °C 1005.0 in /  34029.3 hPa WNW 0.2 mph /  0.3 km/h 2.6 mph /  4.2 km/h 98 % 0.0 in /  0 mm
07:03 3.4 °F /  -15.9 °C 3.1 °F /  -16.1 °C 1005.0 in /  34029.3 hPa NW 0.3 mph /  0.5 km/h 3.5 mph /  5.6 km/h 98 % 0.0 in /  0 mm
07:04 3.4 °F /  -15.9 °C 3.1 °F /  -16.1 °C 1005.0 in /  34029.3 hPa NW 0.3 mph /  0.5 km/h 3.5 mph /  5.6 km/h 98 % 0.0 in /  0 mm
07:09 3.3 °F /  -15.9 °C 3.0 °F /  -16.1 °C 1005.0 in /  34029.3 hPa NW 0.3 mph /  0.5 km/h 3.5 mph /  5.6 km/h 98 % 0.0 in /  0 mm
07:14 3.2 °F /  -16 °C 2.9 °F /  -16.2 °C 1005.0 in /  34029.3 hPa Calm     98 % 0.0 in /  0 mm
07:19 3.1 °F /  -16.1 °C 2.8 °F /  -16.2 °C 1005.0 in /  34029.3 hPa Calm     98 % 0.0 in /  0 mm
07:24 3.0 °F /  -16.1 °C 2.7 °F /  -16.3 °C 1005.0 in /  34029.3 hPa Calm     98 % 0.0 in /  0 mm
07:25 3.0 °F /  -16.1 °C 2.7 °F /  -16.3 °C 1005.0 in /  34029.3 hPa Calm     98 % 0.0 in /  0 mm
07:30 2.9 °F /  -16.2 °C 2.6 °F /  -16.3 °C 1003.9 in /  33992.1 hPa Calm     98 % 0.0 in /  0 mm
07:31 2.9 °F /  -16.2 °C 2.6 °F /  -16.3 °C 1003.9 in /  33992.1 hPa Calm   2.6 mph /  4.2 km/h 98 % 0.0 in /  0 mm
07:35 2.8 °F /  -16.2 °C 2.5 °F /  -16.4 °C 1003.9 in /  33992.1 hPa NW 0.2 mph /  0.3 km/h 2.6 mph /  4.2 km/h 98 % 0.0 in /  0 mm
07:36 2.8 °F /  -16.2 °C 2.5 °F /  -16.4 °C 1003.9 in /  33992.1 hPa NW 0.2 mph /  0.3 km/h 2.6 mph /  4.2 km/h 98 % 0.0 in /  0 mm
07:41 2.8 °F /  -16.2 °C 2.5 °F /  -16.4 °C 1003.9 in /  33992.1 hPa North 0.2 mph /  0.3 km/h   98 % 0.0 in /  0 mm
07:42 2.8 °F /  -16.2 °C 2.5 °F /  -16.4 °C 1003.9 in /  33992.1 hPa Calm     98 % 0.0 in /  0 mm
07:44 2.7 °F /  -16.3 °C 2.4 °F /  -16.4 °C 1003.9 in /  33992.1 hPa Calm     98 % 0.0 in /  0 mm
07:47 2.7 °F /  -16.3 °C 2.4 °F /  -16.4 °C 1003.9 in /  33992.1 hPa Calm   1.8 mph /  2.9 km/h 98 % 0.0 in /  0 mm
07:51 2.8 °F /  -16.2 °C 2.5 °F /  -16.4 °C 1003.9 in /  33992.1 hPa Calm   1.8 mph /  2.9 km/h 98 % 0.0 in /  0 mm
07:56 2.7 °F /  -16.3 °C 2.4 °F /  -16.4 °C 1003.9 in /  33992.1 hPa Calm   1.8 mph /  2.9 km/h 98 % 0.0 in /  0 mm
07:59 2.7 °F /  -16.3 °C 2.4 °F /  -16.4 °C 1005.0 in /  34029.3 hPa WSW 0.3 mph /  0.5 km/h 4.0 mph /  6.4 km/h 98 % 0.0 in /  0 mm
08:04 2.6 °F /  -16.3 °C 2.3 °F /  -16.5 °C 1005.0 in /  34029.3 hPa West 0.8 mph /  1.3 km/h 4.0 mph /  6.4 km/h 98 % 0.0 in /  0 mm
08:09 2.6 °F /  -16.3 °C 2.3 °F /  -16.5 °C 1005.0 in /  34029.3 hPa NNW 0.5 mph /  0.8 km/h 3.5 mph /  5.6 km/h 98 % 0.0 in /  0 mm
08:11 2.6 °F /  -16.3 °C 2.3 °F /  -16.5 °C 1005.0 in /  34029.3 hPa NNW 0.5 mph /  0.8 km/h 3.5 mph /  5.6 km/h 98 % 0.0 in /  0 mm
08:16 2.6 °F /  -16.3 °C 2.3 °F /  -16.5 °C 1005.0 in /  34029.3 hPa Calm     98 % 0.0 in /  0 mm
08:18 2.6 °F /  -16.3 °C 2.3 °F /  -16.5 °C 1005.0 in /  34029.3 hPa Calm     98 % 0.0 in /  0 mm
08:23 2.5 °F /  -16.4 °C 2.2 °F /  -16.6 °C 1005.0 in /  34029.3 hPa Calm     98 % 0.0 in /  0 mm
08:27 2.5 °F /  -16.4 °C 2.2 °F /  -16.6 °C 1005.0 in /  34029.3 hPa Calm     98 % 0.0 in /  0 mm
08:32 2.6 °F /  -16.3 °C 2.3 °F /  -16.5 °C 1006.0 in /  34063.2 hPa NW 0.6 mph /  1 km/h 4.0 mph /  6.4 km/h 98 % 0.0 in /  0 mm
08:35 2.7 °F /  -16.3 °C 2.4 °F /  -16.4 °C 1006.0 in /  34063.2 hPa NW 0.8 mph /  1.3 km/h 4.0 mph /  6.4 km/h 98 % 0.0 in /  0 mm
08:45 2.8 °F /  -16.2 °C 2.5 °F /  -16.4 °C 1006.0 in /  34063.2 hPa NNW 0.2 mph /  0.3 km/h 1.8 mph /  2.9 km/h 98 % 0.0 in /  0 mm
08:49 2.9 °F /  -16.2 °C 2.6 °F /  -16.3 °C 1006.0 in /  34063.2 hPa Calm   1.8 mph /  2.9 km/h 98 % 0.0 in /  0 mm
08:50 2.9 °F /  -16.2 °C 2.6 °F /  -16.3 °C 1006.0 in /  34063.2 hPa Calm     98 % 0.0 in /  0 mm
08:55 3.0 °F /  -16.1 °C 2.7 °F /  -16.3 °C 1006.0 in /  34063.2 hPa Calm     98 % 0.0 in /  0 mm
09:00 3.1 °F /  -16.1 °C 2.8 °F /  -16.2 °C 1007.0 in /  34097 hPa Calm     98 % 0.0 in /  0 mm
09:01 3.1 °F /  -16.1 °C 2.8 °F /  -16.2 °C 1007.0 in /  34097 hPa Calm     98 % 0.0 in /  0 mm
09:06 3.3 °F /  -15.9 °C 3.0 °F /  -16.1 °C 1007.0 in /  34097 hPa Calm     98 % 0.0 in /  0 mm
09:10 3.4 °F /  -15.9 °C 3.1 °F /  -16.1 °C 1007.0 in /  34097 hPa Calm     98 % 0.0 in /  0 mm
09:15 3.7 °F /  -15.7 °C 3.4 °F /  -15.9 °C 1007.0 in /  34097 hPa SE 0.2 mph /  0.3 km/h 2.1 mph /  3.4 km/h 98 % 0.0 in /  0 mm
09:21 3.8 °F /  -15.7 °C 3.5 °F /  -15.8 °C 1007.0 in /  34097 hPa SE 0.2 mph /  0.3 km/h 2.1 mph /  3.4 km/h 98 % 0.0 in /  0 mm
09:26 4.0 °F /  -15.6 °C 3.7 °F /  -15.7 °C 1007.0 in /  34097 hPa SSW 1.3 mph /  2.1 km/h 6.1 mph /  9.8 km/h 98 % 0.0 in /  0 mm
09:31 4.2 °F /  -15.4 °C 3.9 °F /  -15.6 °C 1008.0 in /  34130.9 hPa South 1.8 mph /  2.9 km/h 6.1 mph /  9.8 km/h 98 % 0.0 in /  0 mm
09:32 4.3 °F /  -15.4 °C 4.0 °F /  -15.6 °C 1008.0 in /  34130.9 hPa SE 1.4 mph /  2.3 km/h 5.5 mph /  8.9 km/h 98 % 0.0 in /  0 mm
09:38 4.5 °F /  -15.3 °C 4.2 °F /  -15.4 °C 1008.0 in /  34130.9 hPa SE 0.6 mph /  1 km/h 2.6 mph /  4.2 km/h 98 % 0.0 in /  0 mm
09:39 4.6 °F /  -15.2 °C 4.3 °F /  -15.4 °C 1008.0 in /  34130.9 hPa SE 0.5 mph /  0.8 km/h 2.6 mph /  4.2 km/h 98 % 0.0 in /  0 mm
09:44 4.7 °F /  -15.2 °C 4.4 °F /  -15.3 °C 1008.0 in /  34130.9 hPa Calm   1.4 mph /  2.3 km/h 98 % 0.0 in /  0 mm
09:47 5.1 °F /  -14.9 °C 4.8 °F /  -15.1 °C 1008.0 in /  34130.9 hPa Calm     98 % 0.0 in /  0 mm
09:52 5.5 °F /  -14.7 °C 5.2 °F /  -14.9 °C 1008.0 in /  34130.9 hPa Calm   3.5 mph /  5.6 km/h 98 % 0.0 in /  0 mm
09:54 5.7 °F /  -14.6 °C 5.4 °F /  -14.8 °C 1008.0 in /  34130.9 hPa NNW 0.3 mph /  0.5 km/h 3.5 mph /  5.6 km/h 98 % 0.0 in /  0 mm
09:59 6.1 °F /  -14.4 °C 5.8 °F /  -14.6 °C 1007.0 in /  34097 hPa NNW 0.2 mph /  0.3 km/h 3.5 mph /  5.6 km/h 98 % 0.0 in /  0 mm
10:02 6.3 °F /  -14.3 °C 6.0 °F /  -14.4 °C 1007.0 in /  34097 hPa North 0.3 mph /  0.5 km/h 2.6 mph /  4.2 km/h 98 % 0.0 in /  0 mm
10:05 6.6 °F /  -14.1 °C 6.3 °F /  -14.3 °C 1007.0 in /  34097 hPa Calm     98 % 0.0 in /  0 mm
10:11 7.0 °F /  -13.9 °C 6.7 °F /  -14.1 °C 1007.0 in /  34097 hPa SE 0.2 mph /  0.3 km/h 4.3 mph /  6.9 km/h 98 % 0.0 in /  0 mm
10:13 7.7 °F /  -13.5 °C 7.4 °F /  -13.7 °C 1007.0 in /  34097 hPa WSW 1.0 mph /  1.6 km/h 8.7 mph /  14 km/h 98 % 0.0 in /  0 mm
10:20 8.4 °F /  -13.1 °C 8.1 °F /  -13.3 °C 1007.0 in /  34097 hPa SW 2.7 mph /  4.3 km/h 8.7 mph /  14 km/h 98 % 0.0 in /  0 mm
10:25 8.6 °F /  -13 °C 8.3 °F /  -13.2 °C 1007.0 in /  34097 hPa South 3.5 mph /  5.6 km/h 9.0 mph /  14.5 km/h 98 % 0.0 in /  0 mm
10:27 8.7 °F /  -12.9 °C 8.4 °F /  -13.1 °C 1007.0 in /  34097 hPa South 4.2 mph /  6.8 km/h 9.0 mph /  14.5 km/h 98 % 0.0 in /  0 mm
10:32 8.9 °F /  -12.8 °C 8.6 °F /  -13 °C 1007.0 in /  34097 hPa South 5.0 mph /  8 km/h 7.9 mph /  12.7 km/h 98 % 0.0 in /  0 mm
10:37 9.1 °F /  -12.7 °C 8.8 °F /  -12.9 °C 1007.0 in /  34097 hPa SSW 4.7 mph /  7.6 km/h 7.9 mph /  12.7 km/h 98 % 0.0 in /  0 mm
10:42 9.5 °F /  -12.5 °C 9.2 °F /  -12.7 °C 1007.0 in /  34097 hPa SSW 2.3 mph /  3.7 km/h 6.1 mph /  9.8 km/h 98 % 0.0 in /  0 mm
10:45 9.7 °F /  -12.4 °C 9.4 °F /  -12.6 °C 1007.0 in /  34097 hPa South 1.1 mph /  1.8 km/h 4.7 mph /  7.6 km/h 98 % 0.0 in /  0 mm
10:48 10.0 °F /  -12.2 °C 9.7 °F /  -12.4 °C 1007.0 in /  34097 hPa ESE 1.0 mph /  1.6 km/h 4.7 mph /  7.6 km/h 98 % 0.0 in /  0 mm
10:54 10.3 °F /  -12.1 °C 10.0 °F /  -12.2 °C 1007.0 in /  34097 hPa ENE 1.4 mph /  2.3 km/h 4.7 mph /  7.6 km/h 98 % 0.0 in /  0 mm
10:59 10.7 °F /  -11.8 °C 10.4 °F /  -12 °C 1006.0 in /  34063.2 hPa West 2.4 mph /  3.9 km/h 9.7 mph /  15.6 km/h 98 % 0.0 in /  0 mm
11:01 10.8 °F /  -11.8 °C 10.5 °F /  -11.9 °C 1006.0 in /  34063.2 hPa SW 3.4 mph /  5.5 km/h 9.7 mph /  15.6 km/h 98 % 0.0 in /  0 mm
11:06 11.2 °F /  -11.6 °C 10.9 °F /  -11.7 °C 1006.0 in /  34063.2 hPa SW 5.8 mph /  9.3 km/h 11.9 mph /  19.2 km/h 98 % 0.0 in /  0 mm
11:11 11.5 °F /  -11.4 °C 11.2 °F /  -11.6 °C 1006.0 in /  34063.2 hPa SW 6.4 mph /  10.3 km/h 11.9 mph /  19.2 km/h 98 % 0.0 in /  0 mm
11:13 11.5 °F /  -11.4 °C 11.2 °F /  -11.6 °C 1006.0 in /  34063.2 hPa WSW 6.4 mph /  10.3 km/h 11.9 mph /  19.2 km/h 98 % 0.0 in /  0 mm
11:18 11.7 °F /  -11.3 °C 11.4 °F /  -11.4 °C 1006.0 in /  34063.2 hPa WSW 4.8 mph /  7.7 km/h 9.7 mph /  15.6 km/h 98 % 0.0 in /  0 mm
11:19 11.8 °F /  -11.2 °C 11.5 °F /  -11.4 °C 1006.0 in /  34063.2 hPa WSW 4.3 mph /  6.9 km/h 9.0 mph /  14.5 km/h 98 % 0.0 in /  0 mm
11:25 12.0 °F /  -11.1 °C 11.7 °F /  -11.3 °C 1006.0 in /  34063.2 hPa SW 4.5 mph /  7.2 km/h 11.6 mph /  18.7 km/h 98 % 0.0 in /  0 mm
11:27 12.0 °F /  -11.1 °C 11.7 °F /  -11.3 °C 1007.0 in /  34097 hPa WSW 4.7 mph /  7.6 km/h 11.6 mph /  18.7 km/h 98 % 0.0 in /  0 mm
11:33 12.3 °F /  -10.9 °C 12.0 °F /  -11.1 °C 1007.0 in /  34097 hPa West 6.3 mph /  10.1 km/h 12.2 mph /  19.6 km/h 98 % 0.0 in /  0 mm
11:36 12.4 °F /  -10.9 °C 12.1 °F /  -11.1 °C 1007.0 in /  34097 hPa West 6.6 mph /  10.6 km/h 12.2 mph /  19.6 km/h 98 % 0.0 in /  0 mm
11:41 12.5 °F /  -10.8 °C 12.2 °F /  -11 °C 1007.0 in /  34097 hPa WSW 6.0 mph /  9.7 km/h 10.5 mph /  16.9 km/h 98 % 0.0 in /  0 mm
11:43 12.6 °F /  -10.8 °C 12.3 °F /  -10.9 °C 1007.0 in /  34097 hPa WSW 5.6 mph /  9 km/h 14.0 mph /  22.5 km/h 98 % 0.0 in /  0 mm
11:48 12.6 °F /  -10.8 °C 12.1 °F /  -11.1 °C 1007.0 in /  34097 hPa WSW 6.0 mph /  9.7 km/h 14.0 mph /  22.5 km/h 97 % 0.0 in /  0 mm
11:49 12.6 °F /  -10.8 °C 12.1 °F /  -11.1 °C 1007.0 in /  34097 hPa WSW 6.0 mph /  9.7 km/h 14.0 mph /  22.5 km/h 97 % 0.0 in /  0 mm
11:50 12.7 °F /  -10.7 °C 12.2 °F /  -11 °C 1007.0 in /  34097 hPa West 6.1 mph /  9.8 km/h 14.0 mph /  22.5 km/h 97 % 0.0 in /  0 mm
11:56 13.0 °F /  -10.6 °C 12.6 °F /  -10.8 °C 1007.0 in /  34097 hPa WSW 5.6 mph /  9 km/h 12.6 mph /  20.3 km/h 97 % 0.0 in /  0 mm
12:00 13.0 °F /  -10.6 °C 12.6 °F /  -10.8 °C 1006.0 in /  34063.2 hPa SW 7.1 mph /  11.4 km/h 14.0 mph /  22.5 km/h 97 % 0.0 in /  0 mm
12:01 13.0 °F /  -10.6 °C 12.4 °F /  -10.9 °C 1006.0 in /  34063.2 hPa SW 7.6 mph /  12.2 km/h 16.6 mph /  26.7 km/h 96 % 0.0 in /  0 mm
12:06 12.9 °F /  -10.6 °C 12.3 °F /  -10.9 °C 1006.0 in /  34063.2 hPa SW 9.5 mph /  15.3 km/h 16.6 mph /  26.7 km/h 96 % 0.0 in /  0 mm
12:11 12.7 °F /  -10.7 °C 11.9 °F /  -11.2 °C 1006.0 in /  34063.2 hPa SW 8.4 mph /  13.5 km/h 16.6 mph /  26.7 km/h 95 % 0.0 in /  0 mm
12:15 12.7 °F /  -10.7 °C 11.9 °F /  -11.2 °C 1007.0 in /  34097 hPa SW 7.1 mph /  11.4 km/h 15.8 mph /  25.4 km/h 95 % 0.0 in /  0 mm
12:19 12.7 °F /  -10.7 °C 11.8 °F /  -11.2 °C 1007.0 in /  34097 hPa WSW 6.1 mph /  9.8 km/h 13.7 mph /  22 km/h 94 % 0.0 in /  0 mm
12:24 12.7 °F /  -10.7 °C 11.8 °F /  -11.2 °C 1007.0 in /  34097 hPa WSW 5.8 mph /  9.3 km/h 13.7 mph /  22 km/h 94 % 0.0 in /  0 mm
12:27 12.7 °F /  -10.7 °C 11.6 °F /  -11.3 °C 1007.0 in /  34097 hPa WSW 5.6 mph /  9 km/h 13.7 mph /  22 km/h 93 % 0.0 in /  0 mm
12:32 12.7 °F /  -10.7 °C 11.4 °F /  -11.4 °C 1007.0 in /  34097 hPa WSW 6.6 mph /  10.6 km/h 20.1 mph /  32.3 km/h 92 % 0.0 in /  0 mm
12:37 12.7 °F /  -10.7 °C 11.3 °F /  -11.5 °C 1007.0 in /  34097 hPa West 8.2 mph /  13.2 km/h 20.1 mph /  32.3 km/h 91 % 0.0 in /  0 mm
12:39 12.7 °F /  -10.7 °C 11.3 °F /  -11.5 °C 1007.0 in /  34097 hPa WSW 8.5 mph /  13.7 km/h 15.4 mph /  24.8 km/h 91 % 0.0 in /  0 mm
12:44 12.7 °F /  -10.7 °C 11.1 °F /  -11.6 °C 1008.0 in /  34130.9 hPa WSW 6.3 mph /  10.1 km/h 12.6 mph /  20.3 km/h 90 % 0.0 in /  0 mm
12:48 12.7 °F /  -10.7 °C 10.9 °F /  -11.7 °C 1008.0 in /  34130.9 hPa WSW 5.0 mph /  8 km/h 10.5 mph /  16.9 km/h 89 % 0.0 in /  0 mm
12:49 12.7 °F /  -10.7 °C 10.9 °F /  -11.7 °C 1008.0 in /  34130.9 hPa WSW 5.3 mph /  8.5 km/h 11.9 mph /  19.2 km/h 89 % 0.0 in /  0 mm
12:54 12.7 °F /  -10.7 °C 10.8 °F /  -11.8 °C 1008.0 in /  34130.9 hPa WSW 5.6 mph /  9 km/h 11.9 mph /  19.2 km/h 88 % 0.0 in /  0 mm
12:59 12.6 °F /  -10.8 °C 10.5 °F /  -11.9 °C 1007.0 in /  34097 hPa WSW 7.1 mph /  11.4 km/h 13.7 mph /  22 km/h 87 % 0.0 in /  0 mm
13:01 12.6 °F /  -10.8 °C 10.5 °F /  -11.9 °C 1007.0 in /  34097 hPa WSW 6.8 mph /  10.9 km/h 13.7 mph /  22 km/h 87 % 0.0 in /  0 mm
13:06 12.6 °F /  -10.8 °C 10.2 °F /  -12.1 °C 1007.0 in /  34097 hPa WSW 6.6 mph /  10.6 km/h 13.7 mph /  22 km/h 85 % 0.0 in /  0 mm
13:07 12.6 °F /  -10.8 °C 10.2 °F /  -12.1 °C 1007.0 in /  34097 hPa WSW 5.8 mph /  9.3 km/h 11.9 mph /  19.2 km/h 85 % 0.0 in /  0 mm
13:12 12.5 °F /  -10.8 °C 10.1 °F /  -12.2 °C 1007.0 in /  34097 hPa SW 4.2 mph /  6.8 km/h 9.7 mph /  15.6 km/h 85 % 0.0 in /  0 mm
13:17 12.4 °F /  -10.9 °C 9.8 °F /  -12.3 °C 1007.0 in /  34097 hPa West 4.7 mph /  7.6 km/h 9.7 mph /  15.6 km/h 84 % 0.0 in /  0 mm
13:20 12.4 °F /  -10.9 °C 9.8 °F /  -12.3 °C 1007.0 in /  34097 hPa West 5.1 mph /  8.2 km/h 9.7 mph /  15.6 km/h 84 % 0.0 in /  0 mm
13:25 12.3 °F /  -10.9 °C 9.5 °F /  -12.5 °C 1007.0 in /  34097 hPa West 5.0 mph /  8 km/h 10.5 mph /  16.9 km/h 83 % 0.0 in /  0 mm
13:28 12.3 °F /  -10.9 °C 9.5 °F /  -12.5 °C 1008.0 in /  34130.9 hPa West 6.0 mph /  9.7 km/h 13.0 mph /  20.9 km/h 83 % 0.0 in /  0 mm
13:33 12.3 °F /  -10.9 °C 9.5 °F /  -12.5 °C 1008.0 in /  34130.9 hPa West 6.3 mph /  10.1 km/h 13.0 mph /  20.9 km/h 83 % 0.0 in /  0 mm
13:35 12.2 °F /  -11 °C 9.2 °F /  -12.7 °C 1008.0 in /  34130.9 hPa WSW 6.1 mph /  9.8 km/h 13.0 mph /  20.9 km/h 82 % 0.0 in /  0 mm
13:40 12.2 °F /  -11 °C 9.2 °F /  -12.7 °C 1008.0 in /  34130.9 hPa WSW 4.3 mph /  6.9 km/h 10.1 mph /  16.3 km/h 82 % 0.0 in /  0 mm
13:45 12.2 °F /  -11 °C 9.2 °F /  -12.7 °C 1007.0 in /  34097 hPa West 3.5 mph /  5.6 km/h 7.2 mph /  11.6 km/h 82 % 0.0 in /  0 mm
13:46 12.2 °F /  -11 °C 9.2 °F /  -12.7 °C 1007.0 in /  34097 hPa West 3.5 mph /  5.6 km/h 7.2 mph /  11.6 km/h 82 % 0.0 in /  0 mm
13:51 12.1 °F /  -11.1 °C 9.1 °F /  -12.7 °C 1007.0 in /  34097 hPa WNW 4.0 mph /  6.4 km/h 10.1 mph /  16.3 km/h 82 % 0.0 in /  0 mm
13:56 12.1 °F /  -11.1 °C 8.9 °F /  -12.8 °C 1007.0 in /  34097 hPa WNW 3.5 mph /  5.6 km/h 10.1 mph /  16.3 km/h 81 % 0.0 in /  0 mm
14:00 12.1 °F /  -11.1 °C 8.9 °F /  -12.8 °C 1007.0 in /  34097 hPa NW 2.9 mph /  4.7 km/h 10.1 mph /  16.3 km/h 81 % 0.0 in /  0 mm
14:05 12.1 °F /  -11.1 °C 8.9 °F /  -12.8 °C 1007.0 in /  34097 hPa West 1.3 mph /  2.1 km/h 9.3 mph /  15 km/h 81 % 0.0 in /  0 mm
14:10 12.0 °F /  -11.1 °C 8.8 °F /  -12.9 °C 1007.0 in /  34097 hPa SW 3.1 mph /  5 km/h 9.3 mph /  15 km/h 81 % 0.0 in /  0 mm
14:13 12.0 °F /  -11.1 °C 8.8 °F /  -12.9 °C 1007.0 in /  34097 hPa SW 4.2 mph /  6.8 km/h 9.3 mph /  15 km/h 81 % 0.0 in /  0 mm
14:19 11.9 °F /  -11.2 °C 8.7 °F /  -12.9 °C 1007.0 in /  34097 hPa WSW 4.2 mph /  6.8 km/h 7.9 mph /  12.7 km/h 81 % 0.0 in /  0 mm
14:24 11.9 °F /  -11.2 °C 8.7 °F /  -12.9 °C 1007.0 in /  34097 hPa West 3.2 mph /  5.1 km/h 7.9 mph /  12.7 km/h 81 % 0.0 in /  0 mm
14:29 11.8 °F /  -11.2 °C 8.7 °F /  -12.9 °C 1007.0 in /  34097 hPa West 3.9 mph /  6.3 km/h 9.0 mph /  14.5 km/h 81 % 0.0 in /  0 mm
14:32 11.8 °F /  -11.2 °C 8.4 °F /  -13.1 °C 1007.0 in /  34097 hPa WNW 4.0 mph /  6.4 km/h 9.0 mph /  14.5 km/h 80 % 0.0 in /  0 mm
14:34 11.8 °F /  -11.2 °C 8.4 °F /  -13.1 °C 1007.0 in /  34097 hPa West 4.2 mph /  6.8 km/h 9.0 mph /  14.5 km/h 80 % 0.0 in /  0 mm
14:39 11.7 °F /  -11.3 °C 8.4 °F /  -13.1 °C 1007.0 in /  34097 hPa WNW 3.9 mph /  6.3 km/h 8.7 mph /  14 km/h 80 % 0.0 in /  0 mm
14:41 11.7 °F /  -11.3 °C 8.4 °F /  -13.1 °C 1007.0 in /  34097 hPa WNW 4.0 mph /  6.4 km/h 8.7 mph /  14 km/h 80 % 0.0 in /  0 mm
14:47 11.7 °F /  -11.3 °C 8.4 °F /  -13.1 °C 1007.0 in /  34097 hPa WNW 3.1 mph /  5 km/h 6.4 mph /  10.3 km/h 80 % 0.0 in /  0 mm
14:52 11.6 °F /  -11.3 °C 8.3 °F /  -13.2 °C 1007.0 in /  34097 hPa West 3.4 mph /  5.5 km/h 7.9 mph /  12.7 km/h 80 % 0.0 in /  0 mm
14:57 11.5 °F /  -11.4 °C 8.2 °F /  -13.2 °C 1007.0 in /  34097 hPa West 4.0 mph /  6.4 km/h 7.9 mph /  12.7 km/h 80 % 0.0 in /  0 mm
15:02 11.4 °F /  -11.4 °C 8.1 °F /  -13.3 °C 1007.0 in /  34097 hPa West 3.1 mph /  5 km/h 6.9 mph /  11.1 km/h 80 % 0.0 in /  0 mm
15:07 11.4 °F /  -11.4 °C 8.1 °F /  -13.3 °C 1007.0 in /  34097 hPa WSW 4.3 mph /  6.9 km/h 8.7 mph /  14 km/h 80 % 0.0 in /  0 mm
15:12 11.3 °F /  -11.5 °C 8.0 °F /  -13.3 °C 1008.0 in /  34130.9 hPa WSW 5.5 mph /  8.9 km/h 10.1 mph /  16.3 km/h 80 % 0.0 in /  0 mm
15:16 11.3 °F /  -11.5 °C 8.0 °F /  -13.3 °C 1008.0 in /  34130.9 hPa SW 4.3 mph /  6.9 km/h 10.1 mph /  16.3 km/h 80 % 0.0 in /  0 mm
15:21 11.2 °F /  -11.6 °C 7.9 °F /  -13.4 °C 1008.0 in /  34130.9 hPa WSW 2.7 mph /  4.3 km/h 7.6 mph /  12.2 km/h 80 % 0.0 in /  0 mm
15:26 11.1 °F /  -11.6 °C 7.8 °F /  -13.4 °C 1008.0 in /  34130.9 hPa WSW 2.3 mph /  3.7 km/h 7.6 mph /  12.2 km/h 80 % 0.0 in /  0 mm
15:31 11.0 °F /  -11.7 °C 7.9 °F /  -13.4 °C 1006.0 in /  34063.2 hPa SW 2.9 mph /  4.7 km/h 6.4 mph /  10.3 km/h 81 % 0.0 in /  0 mm
15:33 11.0 °F /  -11.7 °C 7.9 °F /  -13.4 °C 1006.0 in /  34063.2 hPa SW 2.7 mph /  4.3 km/h 6.4 mph /  10.3 km/h 81 % 0.0 in /  0 mm
15:42 10.9 °F /  -11.7 °C 7.8 °F /  -13.4 °C 1006.0 in /  34063.2 hPa East 0.2 mph /  0.3 km/h 1.4 mph /  2.3 km/h 81 % 0.0 in /  0 mm
15:43 10.9 °F /  -11.7 °C 7.8 °F /  -13.4 °C 1006.0 in /  34063.2 hPa Calm   3.5 mph /  5.6 km/h 81 % 0.0 in /  0 mm
15:48 10.8 °F /  -11.8 °C 7.7 °F /  -13.5 °C 1006.0 in /  34063.2 hPa SSW 0.8 mph /  1.3 km/h 4.3 mph /  6.9 km/h 81 % 0.0 in /  0 mm
15:54 10.7 °F /  -11.8 °C 7.6 °F /  -13.6 °C 1006.0 in /  34063.2 hPa SW 1.3 mph /  2.1 km/h 4.3 mph /  6.9 km/h 81 % 0.0 in /  0 mm
15:56 10.7 °F /  -11.8 °C 7.6 °F /  -13.6 °C 1006.0 in /  34063.2 hPa SW 1.1 mph /  1.8 km/h 4.3 mph /  6.9 km/h 81 % 0.0 in /  0 mm
16:01 10.6 °F /  -11.9 °C 7.7 °F /  -13.5 °C 1007.0 in /  34097 hPa WSW 0.3 mph /  0.5 km/h 3.2 mph /  5.1 km/h 82 % 0.0 in /  0 mm
16:02 10.6 °F /  -11.9 °C 7.7 °F /  -13.5 °C 1007.0 in /  34097 hPa WSW 0.3 mph /  0.5 km/h 3.2 mph /  5.1 km/h 82 % 0.0 in /  0 mm
16:08 10.5 °F /  -11.9 °C 7.6 °F /  -13.6 °C 1007.0 in /  34097 hPa Calm   2.1 mph /  3.4 km/h 82 % 0.0 in /  0 mm
16:10 10.5 °F /  -11.9 °C 7.6 °F /  -13.6 °C 1007.0 in /  34097 hPa Calm     82 % 0.0 in /  0 mm
16:15 10.4 °F /  -12 °C 7.4 °F /  -13.7 °C 1007.0 in /  34097 hPa Calm     82 % 0.0 in /  0 mm
16:20 10.2 °F /  -12.1 °C 7.3 °F /  -13.7 °C 1007.0 in /  34097 hPa Calm     82 % 0.0 in /  0 mm
16:26 10.1 °F /  -12.2 °C 7.3 °F /  -13.7 °C 1007.0 in /  34097 hPa Calm   2.6 mph /  4.2 km/h 83 % 0.0 in /  0 mm
16:31 10.0 °F /  -12.2 °C 7.2 °F /  -13.8 °C 1007.0 in /  34097 hPa SW 0.3 mph /  0.5 km/h 3.2 mph /  5.1 km/h 83 % 0.0 in /  0 mm
16:36 9.8 °F /  -12.3 °C 7.1 °F /  -13.8 °C 1007.0 in /  34097 hPa WSW 0.5 mph /  0.8 km/h 3.2 mph /  5.1 km/h 83 % 0.0 in /  0 mm
16:39 9.7 °F /  -12.4 °C 6.9 °F /  -13.9 °C 1007.0 in /  34097 hPa West 0.5 mph /  0.8 km/h 2.6 mph /  4.2 km/h 83 % 0.0 in /  0 mm
16:40 9.7 °F /  -12.4 °C 6.9 °F /  -13.9 °C 1007.0 in /  34097 hPa WNW 0.2 mph /  0.3 km/h 2.6 mph /  4.2 km/h 83 % 0.0 in /  0 mm
16:46 9.6 °F /  -12.4 °C 7.0 °F /  -13.9 °C 1007.0 in /  34097 hPa Calm     84 % 0.0 in /  0 mm
16:48 9.5 °F /  -12.5 °C 6.9 °F /  -13.9 °C 1007.0 in /  34097 hPa Calm     84 % 0.0 in /  0 mm
16:53 9.4 °F /  -12.6 °C 6.8 °F /  -14 °C 1007.0 in /  34097 hPa Calm     84 % 0.0 in /  0 mm
16:54 9.4 °F /  -12.6 °C 6.8 °F /  -14 °C 1007.0 in /  34097 hPa Calm     84 % 0.0 in /  0 mm
16:59 9.2 °F /  -12.7 °C 6.6 °F /  -14.1 °C 1007.0 in /  34097 hPa Calm     84 % 0.0 in /  0 mm
17:00 9.2 °F /  -12.7 °C 6.6 °F /  -14.1 °C 1007.0 in /  34097 hPa Calm     84 % 0.0 in /  0 mm
17:06 9.0 °F /  -12.8 °C 6.4 °F /  -14.2 °C 1007.0 in /  34097 hPa Calm     84 % 0.0 in /  0 mm
17:11 9.0 °F /  -12.8 °C 6.6 °F /  -14.1 °C 1007.0 in /  34097 hPa Calm     85 % 0.0 in /  0 mm
17:14 8.9 °F /  -12.8 °C 6.5 °F /  -14.2 °C 1007.0 in /  34097 hPa Calm     85 % 0.0 in /  0 mm
17:18 8.8 °F /  -12.9 °C 6.4 °F /  -14.2 °C 1007.0 in /  34097 hPa Calm     85 % 0.0 in /  0 mm
17:24 8.7 °F /  -12.9 °C 6.5 °F /  -14.2 °C 1007.0 in /  34097 hPa Calm     86 % 0.0 in /  0 mm
17:29 8.6 °F /  -13 °C 6.4 °F /  -14.2 °C 1007.0 in /  34097 hPa Calm     86 % 0.0 in /  0 mm
17:30 8.6 °F /  -13 °C 6.4 °F /  -14.2 °C 1007.0 in /  34097 hPa Calm     86 % 0.0 in /  0 mm
17:35 8.5 °F /  -13.1 °C 6.3 °F /  -14.3 °C 1007.0 in /  34097 hPa Calm     86 % 0.0 in /  0 mm
17:36 8.5 °F /  -13.1 °C 6.3 °F /  -14.3 °C 1007.0 in /  34097 hPa Calm     86 % 0.0 in /  0 mm
17:41 8.5 °F /  -13.1 °C 6.3 °F /  -14.3 °C 1007.0 in /  34097 hPa Calm     86 % 0.0 in /  0 mm
17:44 8.4 °F /  -13.1 °C 6.2 °F /  -14.3 °C 1007.0 in /  34097 hPa Calm     86 % 0.0 in /  0 mm
17:49 8.4 °F /  -13.1 °C 6.2 °F /  -14.3 °C 1007.0 in /  34097 hPa Calm     86 % 0.0 in /  0 mm
17:52 8.4 °F /  -13.1 °C 6.3 °F /  -14.3 °C 1007.0 in /  34097 hPa Calm     87 % 0.0 in /  0 mm
18:00 8.3 °F /  -13.2 °C 6.3 °F /  -14.3 °C 1007.0 in /  34097 hPa Calm     87 % 0.0 in /  0 mm
18:07 8.3 °F /  -13.2 °C 6.3 °F /  -14.3 °C 1007.0 in /  34097 hPa Calm     87 % 0.0 in /  0 mm
18:12 8.3 °F /  -13.2 °C 6.4 °F /  -14.2 °C 1007.0 in /  34097 hPa Calm     88 % 0.0 in /  0 mm
18:14 8.3 °F /  -13.2 °C 6.4 °F /  -14.2 °C 1007.0 in /  34097 hPa Calm     88 % 0.0 in /  0 mm
18:19 8.3 °F /  -13.2 °C 6.4 °F /  -14.2 °C 1007.0 in /  34097 hPa Calm     88 % 0.0 in /  0 mm
18:24 8.3 °F /  -13.2 °C 6.4 °F /  -14.2 °C 1007.0 in /  34097 hPa Calm     88 % 0.0 in /  0 mm
18:29 8.3 °F /  -13.2 °C 6.6 °F /  -14.1 °C 1007.0 in /  34097 hPa WSW 0.5 mph /  0.8 km/h 5.5 mph /  8.9 km/h 89 % 0.0 in /  0 mm
18:35 8.3 °F /  -13.2 °C 6.6 °F /  -14.1 °C 1007.0 in /  34097 hPa WSW 1.3 mph /  2.1 km/h 5.5 mph /  8.9 km/h 89 % 0.0 in /  0 mm
18:40 8.3 °F /  -13.2 °C 6.6 °F /  -14.1 °C 1007.0 in /  34097 hPa WSW 0.6 mph /  1 km/h 4.3 mph /  6.9 km/h 89 % 0.0 in /  0 mm
18:41 8.3 °F /  -13.2 °C 6.6 °F /  -14.1 °C 1007.0 in /  34097 hPa North 0.3 mph /  0.5 km/h   89 % 0.0 in /  0 mm
18:47 8.3 °F /  -13.2 °C 6.8 °F /  -14 °C 1007.0 in /  34097 hPa Calm     90 % 0.0 in /  0 mm
18:51 8.3 °F /  -13.2 °C 6.8 °F /  -14 °C 1007.0 in /  34097 hPa Calm     90 % 0.0 in /  0 mm
18:57 8.3 °F /  -13.2 °C 6.8 °F /  -14 °C 1007.0 in /  34097 hPa Calm     90 % 0.0 in /  0 mm
19:02 8.3 °F /  -13.2 °C 6.8 °F /  -14 °C 1007.0 in /  34097 hPa Calm     90 % 0.0 in /  0 mm
19:07 8.3 °F /  -13.2 °C 6.9 °F /  -13.9 °C 1007.0 in /  34097 hPa NW 0.3 mph /  0.5 km/h 2.1 mph /  3.4 km/h 91 % 0.0 in /  0 mm
19:12 8.3 °F /  -13.2 °C 6.9 °F /  -13.9 °C 1007.0 in /  34097 hPa NW 0.3 mph /  0.5 km/h 2.1 mph /  3.4 km/h 91 % 0.0 in /  0 mm
19:17 8.3 °F /  -13.2 °C 6.9 °F /  -13.9 °C 1007.0 in /  34097 hPa Calm     91 % 0.0 in /  0 mm
19:18 8.3 °F /  -13.2 °C 6.9 °F /  -13.9 °C 1007.0 in /  34097 hPa Calm     91 % 0.0 in /  0 mm
19:23 8.2 °F /  -13.2 °C 6.8 °F /  -14 °C 1007.0 in /  34097 hPa NW 0.2 mph /  0.3 km/h 2.6 mph /  4.2 km/h 91 % 0.0 in /  0 mm
19:28 8.2 °F /  -13.2 °C 6.8 °F /  -14 °C 1007.0 in /  34097 hPa NW 0.3 mph /  0.5 km/h 2.6 mph /  4.2 km/h 91 % 0.0 in /  0 mm
19:33 8.2 °F /  -13.2 °C 6.8 °F /  -14 °C 1007.0 in /  34097 hPa North 0.2 mph /  0.3 km/h   91 % 0.0 in /  0 mm
19:34 8.2 °F /  -13.2 °C 6.8 °F /  -14 °C 1007.0 in /  34097 hPa Calm     91 % 0.0 in /  0 mm
19:37 8.1 °F /  -13.3 °C 6.7 °F /  -14.1 °C 1007.0 in /  34097 hPa Calm     91 % 0.0 in /  0 mm
19:42 8.1 °F /  -13.3 °C 6.9 °F /  -13.9 °C 1008.0 in /  34130.9 hPa Calm     92 % 0.0 in /  0 mm
19:43 8.1 °F /  -13.3 °C 6.9 °F /  -13.9 °C 1008.0 in /  34130.9 hPa Calm     92 % 0.0 in /  0 mm
19:48 8.0 °F /  -13.3 °C 6.8 °F /  -14 °C 1008.0 in /  34130.9 hPa Calm     92 % 0.0 in /  0 mm
19:50 8.0 °F /  -13.3 °C 6.8 °F /  -14 °C 1008.0 in /  34130.9 hPa Calm     92 % 0.0 in /  0 mm
19:55 7.9 °F /  -13.4 °C 6.7 °F /  -14.1 °C 1008.0 in /  34130.9 hPa Calm     92 % 0.0 in /  0 mm
19:57 7.9 °F /  -13.4 °C 6.7 °F /  -14.1 °C 1008.0 in /  34130.9 hPa Calm     92 % 0.0 in /  0 mm
20:01 7.8 °F /  -13.4 °C 6.6 °F /  -14.1 °C 1008.0 in /  34130.9 hPa Calm     92 % 0.0 in /  0 mm
20:04 7.8 °F /  -13.4 °C 6.6 °F /  -14.1 °C 1008.0 in /  34130.9 hPa Calm     92 % 0.0 in /  0 mm
20:09 7.6 °F /  -13.6 °C 6.4 °F /  -14.2 °C 1008.0 in /  34130.9 hPa Calm     92 % 0.0 in /  0 mm
20:11 7.5 °F /  -13.6 °C 6.3 °F /  -14.3 °C 1008.0 in /  34130.9 hPa Calm     92 % 0.0 in /  0 mm
20:16 7.4 °F /  -13.7 °C 6.2 °F /  -14.3 °C 1008.0 in /  34130.9 hPa Calm     92 % 0.0 in /  0 mm
20:23 7.3 °F /  -13.7 °C 6.1 °F /  -14.4 °C 1008.0 in /  34130.9 hPa Calm     92 % 0.0 in /  0 mm
20:28 7.1 °F /  -13.8 °C 5.9 °F /  -14.5 °C 1008.0 in /  34130.9 hPa Calm     92 % 0.0 in /  0 mm
20:34 6.9 °F /  -13.9 °C 5.8 °F /  -14.6 °C 1008.0 in /  34130.9 hPa Calm     93 % 0.0 in /  0 mm
20:36 6.9 °F /  -13.9 °C 5.8 °F /  -14.6 °C 1008.0 in /  34130.9 hPa Calm     93 % 0.0 in /  0 mm
20:37 6.8 °F /  -14 °C 5.7 °F /  -14.6 °C 1008.0 in /  34130.9 hPa Calm     93 % 0.0 in /  0 mm
20:43 6.7 °F /  -14.1 °C 5.7 °F /  -14.6 °C 1008.0 in /  34130.9 hPa Calm     93 % 0.0 in /  0 mm
20:48 6.5 °F /  -14.2 °C 5.4 °F /  -14.8 °C 1008.0 in /  34130.9 hPa Calm     93 % 0.0 in /  0 mm
20:53 6.4 °F /  -14.2 °C 5.3 °F /  -14.8 °C 1008.0 in /  34130.9 hPa Calm     93 % 0.0 in /  0 mm
20:56 6.3 °F /  -14.3 °C 5.3 °F /  -14.8 °C 1008.0 in /  34130.9 hPa Calm     93 % 0.0 in /  0 mm
21:00 6.3 °F /  -14.3 °C 5.3 °F /  -14.8 °C 1008.0 in /  34130.9 hPa Calm     93 % 0.0 in /  0 mm
21:05 6.1 °F /  -14.4 °C 5.1 °F /  -14.9 °C 1008.0 in /  34130.9 hPa Calm     93 % 0.0 in /  0 mm
21:07 6.1 °F /  -14.4 °C 5.1 °F /  -14.9 °C 1008.0 in /  34130.9 hPa Calm     93 % 0.0 in /  0 mm
21:09 6.1 °F /  -14.4 °C 5.1 °F /  -14.9 °C 1008.0 in /  34130.9 hPa Calm     93 % 0.0 in /  0 mm
21:14 6.2 °F /  -14.3 °C 5.2 °F /  -14.9 °C 1008.0 in /  34130.9 hPa Calm     93 % 0.0 in /  0 mm
21:17 6.3 °F /  -14.3 °C 5.3 °F /  -14.8 °C 1008.0 in /  34130.9 hPa Calm     93 % 0.0 in /  0 mm
21:22 6.3 °F /  -14.3 °C 5.3 °F /  -14.8 °C 1008.0 in /  34130.9 hPa Calm     93 % 0.0 in /  0 mm
21:25 6.4 °F /  -14.2 °C 5.3 °F /  -14.8 °C 1008.0 in /  34130.9 hPa Calm     93 % 0.0 in /  0 mm
21:30 6.5 °F /  -14.2 °C 5.4 °F /  -14.8 °C 1008.0 in /  34130.9 hPa Calm     93 % 0.0 in /  0 mm
21:32 6.5 °F /  -14.2 °C 5.4 °F /  -14.8 °C 1008.0 in /  34130.9 hPa Calm     93 % 0.0 in /  0 mm
21:37 6.7 °F /  -14.1 °C 5.7 °F /  -14.6 °C 1008.0 in /  34130.9 hPa WNW 0.2 mph /  0.3 km/h 2.6 mph /  4.2 km/h 93 % 0.0 in /  0 mm
21:42 6.8 °F /  -14 °C 5.9 °F /  -14.5 °C 1008.0 in /  34130.9 hPa WNW 0.2 mph /  0.3 km/h 2.6 mph /  4.2 km/h 94 % 0.0 in /  0 mm
21:47 7.0 °F /  -13.9 °C 5.9 °F /  -14.5 °C 1008.0 in /  34130.9 hPa Calm     93 % 0.0 in /  0 mm
21:49 7.0 °F /  -13.9 °C 5.9 °F /  -14.5 °C 1008.0 in /  34130.9 hPa Calm     93 % 0.0 in /  0 mm
21:54 7.0 °F /  -13.9 °C 6.1 °F /  -14.4 °C 1008.0 in /  34130.9 hPa Calm     94 % 0.0 in /  0 mm
21:58 7.1 °F /  -13.8 °C 6.2 °F /  -14.3 °C 1008.0 in /  34130.9 hPa Calm     94 % 0.0 in /  0 mm
21:59 7.1 °F /  -13.8 °C 6.2 °F /  -14.3 °C 1008.0 in /  34130.9 hPa Calm     94 % 0.0 in /  0 mm
22:04 7.2 °F /  -13.8 °C 6.3 °F /  -14.3 °C 1008.0 in /  34130.9 hPa Calm     94 % 0.0 in /  0 mm
22:06 7.2 °F /  -13.8 °C 6.3 °F /  -14.3 °C 1008.0 in /  34130.9 hPa Calm     94 % 0.0 in /  0 mm
22:11 7.3 °F /  -13.7 °C 6.4 °F /  -14.2 °C 1008.0 in /  34130.9 hPa Calm     94 % 0.0 in /  0 mm
22:14 7.3 °F /  -13.7 °C 6.4 °F /  -14.2 °C 1008.0 in /  34130.9 hPa Calm     94 % 0.0 in /  0 mm
22:16 7.3 °F /  -13.7 °C 6.4 °F /  -14.2 °C 1008.0 in /  34130.9 hPa Calm     94 % 0.0 in /  0 mm
22:21 7.4 °F /  -13.7 °C 6.5 °F /  -14.2 °C 1008.0 in /  34130.9 hPa Calm     94 % 0.0 in /  0 mm
22:24 7.4 °F /  -13.7 °C 6.5 °F /  -14.2 °C 1008.0 in /  34130.9 hPa Calm     94 % 0.0 in /  0 mm
22:29 7.5 °F /  -13.6 °C 6.8 °F /  -14 °C 1008.0 in /  34130.9 hPa Calm     95 % 0.0 in /  0 mm
22:30 7.5 °F /  -13.6 °C 6.8 °F /  -14 °C 1008.0 in /  34130.9 hPa Calm     95 % 0.0 in /  0 mm
22:35 7.5 °F /  -13.6 °C 6.8 °F /  -14 °C 1008.0 in /  34130.9 hPa Calm     95 % 0.0 in /  0 mm
22:37 7.5 °F /  -13.6 °C 6.8 °F /  -14 °C 1008.0 in /  34130.9 hPa Calm     95 % 0.0 in /  0 mm
22:42 7.6 °F /  -13.6 °C 6.8 °F /  -14 °C 1008.0 in /  34130.9 hPa Calm     95 % 0.0 in /  0 mm
22:43 7.6 °F /  -13.6 °C 6.8 °F /  -14 °C 1008.0 in /  34130.9 hPa Calm     95 % 0.0 in /  0 mm
22:48 7.6 °F /  -13.6 °C 6.8 °F /  -14 °C 1008.0 in /  34130.9 hPa Calm     95 % 0.0 in /  0 mm
22:49 7.6 °F /  -13.6 °C 6.8 °F /  -14 °C 1008.0 in /  34130.9 hPa Calm     95 % 0.0 in /  0 mm
22:54 7.7 °F /  -13.5 °C 6.9 °F /  -13.9 °C 1008.0 in /  34130.9 hPa Calm     95 % 0.0 in /  0 mm
22:59 7.6 °F /  -13.6 °C 6.8 °F /  -14 °C 1008.0 in /  34130.9 hPa Calm     95 % 0.0 in /  0 mm
23:02 7.6 °F /  -13.6 °C 6.8 °F /  -14 °C 1008.0 in /  34130.9 hPa Calm     95 % 0.0 in /  0 mm
23:07 7.6 °F /  -13.6 °C 6.8 °F /  -14 °C 1008.0 in /  34130.9 hPa Calm     95 % 0.0 in /  0 mm
23:12 7.7 °F /  -13.5 °C 6.9 °F /  -13.9 °C 1008.0 in /  34130.9 hPa Calm     95 % 0.0 in /  0 mm
23:15 7.7 °F /  -13.5 °C 6.9 °F /  -13.9 °C 1008.0 in /  34130.9 hPa Calm     95 % 0.0 in /  0 mm
23:20 7.7 °F /  -13.5 °C 6.9 °F /  -13.9 °C 1008.0 in /  34130.9 hPa Calm     95 % 0.0 in /  0 mm
23:24 7.6 °F /  -13.6 °C 6.8 °F /  -14 °C 1008.0 in /  34130.9 hPa Calm     95 % 0.0 in /  0 mm
23:29 7.5 °F /  -13.6 °C 6.8 °F /  -14 °C 1008.0 in /  34130.9 hPa Calm     95 % 0.0 in /  0 mm
23:30 7.5 °F /  -13.6 °C 6.8 °F /  -14 °C 1008.0 in /  34130.9 hPa Calm     95 % 0.0 in /  0 mm
23:31 7.5 °F /  -13.6 °C 6.8 °F /  -14 °C 1008.0 in /  34130.9 hPa Calm     95 % 0.0 in /  0 mm
23:36 7.6 °F /  -13.6 °C 6.8 °F /  -14 °C 1008.0 in /  34130.9 hPa Calm     95 % 0.0 in /  0 mm
23:37 7.7 °F /  -13.5 °C 6.9 °F /  -13.9 °C 1008.0 in /  34130.9 hPa Calm     95 % 0.0 in /  0 mm
23:42 7.7 °F /  -13.5 °C 6.9 °F /  -13.9 °C 1008.0 in /  34130.9 hPa Calm     95 % 0.0 in /  0 mm
23:47 7.6 °F /  -13.6 °C 7.0 °F /  -13.9 °C 1008.0 in /  34130.9 hPa Calm     96 % 0.0 in /  0 mm
23:52 7.7 °F /  -13.5 °C 7.1 °F /  -13.8 °C 1008.0 in /  34130.9 hPa Calm     96 % 0.0 in /  0 mm
23:56 7.7 °F /  -13.5 °C 7.1 °F /  -13.8 °C 1008.0 in /  34130.9 hPa Calm     96 % 0.0 in /  0 mm
Vremenska postaja Senovo
Podatki zbrani iz Weather Underground - 3.25 mb

Script developed by  Jim McMurry - jmcmurry@mwt.net Adapted for the template by  Wim van der Kuil - Leuven-Template.eu

Vremenski podatki so objavljeni na:

European Weather Network

WeatherCloud

Weather Underground

AWEKAS

HAMweather, WeatherForYou, PWS Weather

MapView

Geostik

Slovenia weather network

Oprema, ki se uporablja:

Vremenski program
Cumulus

Vremenski server
Asus

Cumulus

Asus